sensor_id;sensor_type;location;lat;lon;timestamp;P1;durP1;ratioP1;P2;durP2;ratioP2
34541;SDS011;20784;51.332;12.410;2023-02-17T06:02:12;10.95;;;8.10;;
34541;SDS011;20784;51.332;12.410;2023-02-17T06:12:06;11.80;;;7.80;;
34541;SDS011;20784;51.332;12.410;2023-02-17T06:14:44;11.98;;;8.45;;
34541;SDS011;20784;51.332;12.410;2023-02-17T06:17:36;10.10;;;7.40;;
34541;SDS011;20784;51.332;12.410;2023-02-17T06:20:10;9.75;;;7.28;;
34541;SDS011;20784;51.332;12.410;2023-02-17T06:22:46;11.23;;;7.97;;
34541;SDS011;20784;51.332;12.410;2023-02-17T06:25:11;11.68;;;7.38;;
34541;SDS011;20784;51.332;12.410;2023-02-17T06:27:39;10.30;;;6.80;;
34541;SDS011;20784;51.332;12.410;2023-02-17T06:30:18;10.38;;;7.10;;
34541;SDS011;20784;51.332;12.410;2023-02-17T06:32:48;9.63;;;7.30;;
34541;SDS011;20784;51.332;12.410;2023-02-17T06:35:14;9.40;;;7.65;;
34541;SDS011;20784;51.332;12.410;2023-02-17T06:37:40;8.63;;;6.70;;
34541;SDS011;20784;51.332;12.410;2023-02-17T06:40:06;8.90;;;6.90;;
34541;SDS011;20784;51.332;12.410;2023-02-17T06:42:35;9.27;;;7.40;;
34541;SDS011;20784;51.332;12.410;2023-02-17T06:45:00;9.52;;;7.03;;
34541;SDS011;20784;51.332;12.410;2023-02-17T06:47:33;10.52;;;7.53;;
34541;SDS011;20784;51.332;12.410;2023-02-17T06:49:59;12.05;;;7.18;;
34541;SDS011;20784;51.332;12.410;2023-02-17T06:52:25;12.20;;;7.97;;
34541;SDS011;20784;51.332;12.410;2023-02-17T06:54:50;10.77;;;6.40;;
34541;SDS011;20784;51.332;12.410;2023-02-17T06:57:16;9.65;;;7.05;;
34541;SDS011;20784;51.332;12.410;2023-02-17T06:59:42;12.15;;;7.70;;
34541;SDS011;20784;51.332;12.410;2023-02-17T07:02:11;13.15;;;7.78;;
34541;SDS011;20784;51.332;12.410;2023-02-17T07:04:38;9.27;;;6.85;;
34541;SDS011;20784;51.332;12.410;2023-02-17T07:07:07;10.57;;;8.02;;
34541;SDS011;20784;51.332;12.410;2023-02-17T07:09:33;12.02;;;7.45;;
34541;SDS011;20784;51.332;12.410;2023-02-17T07:11:59;9.38;;;7.28;;
34541;SDS011;20784;51.332;12.410;2023-02-17T07:14:42;13.48;;;8.10;;
34541;SDS011;20784;51.332;12.410;2023-02-17T07:17:07;11.88;;;7.55;;
34541;SDS011;20784;51.332;12.410;2023-02-17T07:19:42;11.23;;;7.60;;
34541;SDS011;20784;51.332;12.410;2023-02-17T07:22:14;9.40;;;7.22;;
34541;SDS011;20784;51.332;12.410;2023-02-17T07:24:40;12.52;;;7.60;;
34541;SDS011;20784;51.332;12.410;2023-02-17T07:27:23;11.10;;;7.53;;
34541;SDS011;20784;51.332;12.410;2023-02-17T07:30:00;11.73;;;7.78;;
34541;SDS011;20784;51.332;12.410;2023-02-17T07:32:26;11.15;;;7.90;;
34541;SDS011;20784;51.332;12.410;2023-02-17T07:35:10;10.38;;;7.18;;
34541;SDS011;20784;51.332;12.410;2023-02-17T07:37:59;11.60;;;7.90;;
34541;SDS011;20784;51.332;12.410;2023-02-17T07:47:00;10.13;;;7.60;;
34541;SDS011;20784;51.332;12.410;2023-02-17T07:50:08;12.18;;;7.68;;
34541;SDS011;20784;51.332;12.410;2023-02-17T07:53:02;9.65;;;7.18;;
34541;SDS011;20784;51.332;12.410;2023-02-17T07:56:12;12.45;;;8.25;;
34541;SDS011;20784;51.332;12.410;2023-02-17T07:58:40;13.20;;;7.70;;
34541;SDS011;20784;51.332;12.410;2023-02-17T08:01:18;10.98;;;8.02;;
34541;SDS011;20784;51.332;12.410;2023-02-17T08:03:48;10.55;;;7.93;;
34541;SDS011;20784;51.332;12.410;2023-02-17T08:06:16;13.55;;;8.38;;
34541;SDS011;20784;51.332;12.410;2023-02-17T08:08:45;11.05;;;8.05;;
34541;SDS011;20784;51.332;12.410;2023-02-17T08:11:30;12.20;;;7.72;;
34541;SDS011;20784;51.332;12.410;2023-02-17T08:14:19;10.50;;;7.60;;
34541;SDS011;20784;51.332;12.410;2023-02-17T08:16:46;11.00;;;7.20;;
34541;SDS011;20784;51.332;12.410;2023-02-17T08:19:11;12.02;;;8.77;;
34541;SDS011;20784;51.332;12.410;2023-02-17T08:21:37;10.95;;;7.50;;
34541;SDS011;20784;51.332;12.410;2023-02-17T08:24:08;9.30;;;7.18;;
34541;SDS011;20784;51.332;12.410;2023-02-17T08:26:41;11.80;;;7.85;;
34541;SDS011;20784;51.332;12.410;2023-02-17T08:29:07;13.68;;;7.88;;
34541;SDS011;20784;51.332;12.410;2023-02-17T08:31:37;12.65;;;7.80;;
34541;SDS011;20784;51.332;12.410;2023-02-17T08:34:04;11.43;;;6.78;;
34541;SDS011;20784;51.332;12.410;2023-02-17T08:36:44;11.63;;;7.13;;
34541;SDS011;20784;51.332;12.410;2023-02-17T08:39:11;8.68;;;6.53;;
34541;SDS011;20784;51.332;12.410;2023-02-17T08:41:39;10.93;;;7.13;;
34541;SDS011;20784;51.332;12.410;2023-02-17T08:44:06;9.75;;;6.65;;
34541;SDS011;20784;51.332;12.410;2023-02-17T08:46:45;10.02;;;6.40;;
34541;SDS011;20784;51.332;12.410;2023-02-17T08:49:36;13.73;;;6.88;;
34541;SDS011;20784;51.332;12.410;2023-02-17T08:52:02;8.57;;;6.15;;
34541;SDS011;20784;51.332;12.410;2023-02-17T08:54:30;7.25;;;5.15;;
34541;SDS011;20784;51.332;12.410;2023-02-17T08:56:56;11.90;;;6.80;;
34541;SDS011;20784;51.332;12.410;2023-02-17T08:59:22;11.77;;;6.25;;
34541;SDS011;20784;51.332;12.410;2023-02-17T09:01:48;10.43;;;6.10;;
34541;SDS011;20784;51.332;12.410;2023-02-17T09:04:14;7.90;;;5.85;;
34541;SDS011;20784;51.332;12.410;2023-02-17T09:06:45;9.38;;;6.00;;
34541;SDS011;20784;51.332;12.410;2023-02-17T09:09:14;8.18;;;5.88;;
34541;SDS011;20784;51.332;12.410;2023-02-17T09:11:41;9.20;;;5.75;;
34541;SDS011;20784;51.332;12.410;2023-02-17T09:14:25;10.07;;;6.03;;
34541;SDS011;20784;51.332;12.410;2023-02-17T09:16:53;6.63;;;4.82;;
34541;SDS011;20784;51.332;12.410;2023-02-17T09:19:23;10.63;;;6.30;;
34541;SDS011;20784;51.332;12.410;2023-02-17T09:21:53;9.23;;;6.15;;
34541;SDS011;20784;51.332;12.410;2023-02-17T09:26:47;7.32;;;5.28;;
34541;SDS011;20784;51.332;12.410;2023-02-17T09:29:15;9.68;;;5.68;;
34541;SDS011;20784;51.332;12.410;2023-02-17T09:31:48;9.80;;;5.75;;
34541;SDS011;20784;51.332;12.410;2023-02-17T09:34:29;7.97;;;6.18;;
34541;SDS011;20784;51.332;12.410;2023-02-17T09:37:00;7.40;;;5.97;;
34541;SDS011;20784;51.332;12.410;2023-02-17T09:39:39;8.10;;;5.47;;
34541;SDS011;20784;51.332;12.410;2023-02-17T09:42:18;8.13;;;4.93;;
34541;SDS011;20784;51.332;12.410;2023-02-17T09:44:54;7.53;;;5.47;;
34541;SDS011;20784;51.332;12.410;2023-02-17T09:47:42;7.85;;;5.15;;
34541;SDS011;20784;51.332;12.410;2023-02-17T09:50:17;7.15;;;5.00;;
34541;SDS011;20784;51.332;12.410;2023-02-17T09:53:04;8.32;;;5.00;;
34541;SDS011;20784;51.332;12.410;2023-02-17T09:58:44;7.10;;;5.20;;
34541;SDS011;20784;51.332;12.410;2023-02-17T10:01:23;7.72;;;5.10;;
34541;SDS011;20784;51.332;12.410;2023-02-17T10:03:58;7.50;;;4.78;;
34541;SDS011;20784;51.332;12.410;2023-02-17T10:06:38;5.47;;;4.25;;
34541;SDS011;20784;51.332;12.410;2023-02-17T10:15:18;6.65;;;4.78;;
34541;SDS011;20784;51.332;12.410;2023-02-17T10:21:06;10.98;;;4.82;;
34541;SDS011;20784;51.332;12.410;2023-02-17T10:24:00;7.38;;;4.47;;
34541;SDS011;20784;51.332;12.410;2023-02-17T10:33:37;6.05;;;4.30;;
34541;SDS011;20784;51.332;12.410;2023-02-17T10:39:54;6.65;;;5.00;;
34541;SDS011;20784;51.332;12.410;2023-02-17T10:42:29;6.47;;;4.50;;
34541;SDS011;20784;51.332;12.410;2023-02-17T10:48:15;6.00;;;4.43;;
34541;SDS011;20784;51.332;12.410;2023-02-17T10:50:48;6.43;;;4.40;;
34541;SDS011;20784;51.332;12.410;2023-02-17T10:53:25;5.75;;;4.10;;
34541;SDS011;20784;51.332;12.410;2023-02-17T10:59:38;6.25;;;4.18;;
34541;SDS011;20784;51.332;12.410;2023-02-17T11:05:36;6.32;;;4.50;;
34541;SDS011;20784;51.332;12.410;2023-02-17T11:11:06;6.75;;;3.95;;
34541;SDS011;20784;51.332;12.410;2023-02-17T11:14:00;6.63;;;4.28;;
34541;SDS011;20784;51.332;12.410;2023-02-17T11:16:35;4.85;;;3.88;;
34541;SDS011;20784;51.332;12.410;2023-02-17T11:19:05;5.90;;;3.92;;
34541;SDS011;20784;51.332;12.410;2023-02-17T11:22:00;4.72;;;3.80;;
34541;SDS011;20784;51.332;12.410;2023-02-17T11:24:44;5.47;;;3.72;;
34541;SDS011;20784;51.332;12.410;2023-02-17T11:27:27;5.53;;;3.58;;
34541;SDS011;20784;51.332;12.410;2023-02-17T11:29:53;4.63;;;3.78;;
34541;SDS011;20784;51.332;12.410;2023-02-17T11:32:30;7.38;;;3.67;;
34541;SDS011;20784;51.332;12.410;2023-02-17T11:34:57;5.10;;;3.50;;
34541;SDS011;20784;51.332;12.410;2023-02-17T11:37:27;11.80;;;3.88;;
34541;SDS011;20784;51.332;12.410;2023-02-17T11:39:56;4.88;;;3.67;;
34541;SDS011;20784;51.332;12.410;2023-02-17T11:42:26;4.40;;;3.78;;
34541;SDS011;20784;51.332;12.410;2023-02-17T11:44:59;3.90;;;3.50;;
34541;SDS011;20784;51.332;12.410;2023-02-17T11:47:45;5.13;;;3.72;;
34541;SDS011;20784;51.332;12.410;2023-02-17T11:50:34;6.05;;;3.05;;
34541;SDS011;20784;51.332;12.410;2023-02-17T11:53:13;5.70;;;3.47;;
34541;SDS011;20784;51.332;12.410;2023-02-17T12:02:11;6.10;;;3.33;;
34541;SDS011;20784;51.332;12.410;2023-02-17T12:07:27;4.32;;;3.25;;
34541;SDS011;20784;51.332;12.410;2023-02-17T12:15:47;4.60;;;3.00;;
34541;SDS011;20784;51.332;12.410;2023-02-17T12:20:49;4.15;;;3.05;;
34541;SDS011;20784;51.332;12.410;2023-02-17T12:31:29;3.78;;;3.00;;
34541;SDS011;20784;51.332;12.410;2023-02-17T12:34:17;2.88;;;2.55;;
34541;SDS011;20784;51.332;12.410;2023-02-17T12:36:54;4.22;;;2.70;;
34541;SDS011;20784;51.332;12.410;2023-02-17T12:42:06;4.20;;;2.38;;
34541;SDS011;20784;51.332;12.410;2023-02-17T12:44:45;3.22;;;2.15;;
34541;SDS011;20784;51.332;12.410;2023-02-17T12:50:20;2.72;;;2.00;;
34541;SDS011;20784;51.332;12.410;2023-02-17T12:52:57;2.60;;;1.98;;
34541;SDS011;20784;51.332;12.410;2023-02-17T12:55:35;2.50;;;2.00;;
34541;SDS011;20784;51.332;12.410;2023-02-17T12:58:14;2.58;;;1.90;;
34541;SDS011;20784;51.332;12.410;2023-02-17T13:00:58;2.25;;;1.98;;
34541;SDS011;20784;51.332;12.410;2023-02-17T13:03:52;2.60;;;1.98;;
34541;SDS011;20784;51.332;12.410;2023-02-17T13:06:26;5.53;;;1.83;;
34541;SDS011;20784;51.332;12.410;2023-02-17T13:09:26;2.53;;;2.17;;
34541;SDS011;20784;51.332;12.410;2023-02-17T13:15:27;2.00;;;1.77;;
34541;SDS011;20784;51.332;12.410;2023-02-17T13:26:07;2.65;;;2.08;;
34541;SDS011;20784;51.332;12.410;2023-02-17T13:28:49;2.97;;;2.20;;
34541;SDS011;20784;51.332;12.410;2023-02-17T13:31:24;3.03;;;2.15;;
34541;SDS011;20784;51.332;12.410;2023-02-17T13:33:52;2.42;;;1.85;;
34541;SDS011;20784;51.332;12.410;2023-02-17T13:39:29;2.75;;;1.75;;
34541;SDS011;20784;51.332;12.410;2023-02-17T13:41:56;2.35;;;2.00;;
34541;SDS011;20784;51.332;12.410;2023-02-17T13:44:42;1.98;;;1.77;;
34541;SDS011;20784;51.332;12.410;2023-02-17T13:47:17;3.58;;;1.50;;
34541;SDS011;20784;51.332;12.410;2023-02-17T13:49:52;3.05;;;2.20;;
34541;SDS011;20784;51.332;12.410;2023-02-17T13:52:23;4.53;;;1.75;;
34541;SDS011;20784;51.332;12.410;2023-02-17T13:54:59;2.28;;;2.08;;
34541;SDS011;20784;51.332;12.410;2023-02-17T13:57:37;2.35;;;1.90;;
34541;SDS011;20784;51.332;12.410;2023-02-17T14:00:15;2.15;;;1.80;;
34541;SDS011;20784;51.332;12.410;2023-02-17T14:02:50;3.80;;;2.03;;
34541;SDS011;20784;51.332;12.410;2023-02-17T14:08:05;3.78;;;1.55;;
34541;SDS011;20784;51.332;12.410;2023-02-17T14:10:36;2.70;;;1.98;;
34541;SDS011;20784;51.332;12.410;2023-02-17T14:13:02;2.38;;;1.85;;
34541;SDS011;20784;51.332;12.410;2023-02-17T14:15:28;3.13;;;2.13;;
34541;SDS011;20784;51.332;12.410;2023-02-17T14:17:58;4.30;;;2.05;;
34541;SDS011;20784;51.332;12.410;2023-02-17T14:20:24;2.55;;;1.92;;
34541;SDS011;20784;51.332;12.410;2023-02-17T14:23:04;2.55;;;1.70;;
34541;SDS011;20784;51.332;12.410;2023-02-17T14:25:37;2.80;;;1.40;;
34541;SDS011;20784;51.332;12.410;2023-02-17T14:28:16;2.58;;;2.00;;
34541;SDS011;20784;51.332;12.410;2023-02-17T14:30:46;2.90;;;1.77;;
34541;SDS011;20784;51.332;12.410;2023-02-17T14:35:55;3.33;;;1.50;;
34541;SDS011;20784;51.332;12.410;2023-02-17T14:38:37;2.92;;;1.77;;
34541;SDS011;20784;51.332;12.410;2023-02-17T14:41:05;1.92;;;1.35;;
34541;SDS011;20784;51.332;12.410;2023-02-17T14:43:35;3.35;;;1.48;;
34541;SDS011;20784;51.332;12.410;2023-02-17T14:46:01;2.40;;;1.40;;
34541;SDS011;20784;51.332;12.410;2023-02-17T14:48:28;3.13;;;1.52;;
34541;SDS011;20784;51.332;12.410;2023-02-17T14:51:11;1.90;;;1.40;;
34541;SDS011;20784;51.332;12.410;2023-02-17T14:53:39;4.05;;;1.50;;
34541;SDS011;20784;51.332;12.410;2023-02-17T14:56:12;1.92;;;1.48;;
34541;SDS011;20784;51.332;12.410;2023-02-17T14:59:08;4.57;;;1.50;;
34541;SDS011;20784;51.332;12.410;2023-02-17T15:01:41;2.38;;;1.30;;
34541;SDS011;20784;51.332;12.410;2023-02-17T15:04:09;3.03;;;1.77;;
34541;SDS011;20784;51.332;12.410;2023-02-17T15:06:39;2.83;;;1.55;;
34541;SDS011;20784;51.332;12.410;2023-02-17T15:09:11;2.50;;;1.42;;
34541;SDS011;20784;51.332;12.410;2023-02-17T15:14:06;2.50;;;1.52;;
34541;SDS011;20784;51.332;12.410;2023-02-17T15:16:43;3.33;;;1.48;;
34541;SDS011;20784;51.332;12.410;2023-02-17T15:19:10;3.15;;;1.73;;
34541;SDS011;20784;51.332;12.410;2023-02-17T15:21:36;3.28;;;1.60;;
34541;SDS011;20784;51.332;12.410;2023-02-17T15:24:07;2.15;;;1.52;;
34541;SDS011;20784;51.332;12.410;2023-02-17T15:26:42;2.38;;;1.80;;
34541;SDS011;20784;51.332;12.410;2023-02-17T15:29:15;2.80;;;1.50;;
34541;SDS011;20784;51.332;12.410;2023-02-17T15:31:42;2.90;;;1.60;;
34541;SDS011;20784;51.332;12.410;2023-02-17T15:34:11;2.05;;;1.40;;
34541;SDS011;20784;51.332;12.410;2023-02-17T15:36:42;4.38;;;1.73;;
34541;SDS011;20784;51.332;12.410;2023-02-17T15:39:23;2.30;;;1.45;;
34541;SDS011;20784;51.332;12.410;2023-02-17T15:41:49;2.50;;;1.90;;
34541;SDS011;20784;51.332;12.410;2023-02-17T15:44:21;1.95;;;1.65;;
34541;SDS011;20784;51.332;12.410;2023-02-17T15:46:49;2.42;;;1.63;;
34541;SDS011;20784;51.332;12.410;2023-02-17T15:49:16;2.45;;;1.75;;
34541;SDS011;20784;51.332;12.410;2023-02-17T15:54:46;3.30;;;1.70;;
34541;SDS011;20784;51.332;12.410;2023-02-17T15:57:22;3.22;;;1.27;;
34541;SDS011;20784;51.332;12.410;2023-02-17T15:59:48;2.58;;;1.50;;
34541;SDS011;20784;51.332;12.410;2023-02-17T16:02:21;2.88;;;1.40;;
34541;SDS011;20784;51.332;12.410;2023-02-17T16:04:51;1.77;;;1.20;;
34541;SDS011;20784;51.332;12.410;2023-02-17T16:07:17;2.72;;;1.50;;
34541;SDS011;20784;51.332;12.410;2023-02-17T16:09:45;2.05;;;1.55;;
34541;SDS011;20784;51.332;12.410;2023-02-17T16:12:18;1.45;;;1.20;;
34541;SDS011;20784;51.332;12.410;2023-02-17T16:14:53;3.03;;;1.48;;
34541;SDS011;20784;51.332;12.410;2023-02-17T16:20:48;2.80;;;1.40;;
34541;SDS011;20784;51.332;12.410;2023-02-17T16:23:28;4.93;;;1.65;;
34541;SDS011;20784;51.332;12.410;2023-02-17T16:26:42;4.28;;;1.60;;
34541;SDS011;20784;51.332;12.410;2023-02-17T16:28:48;2.95;;;1.45;;
34541;SDS011;20784;51.332;12.410;2023-02-17T16:31:20;4.10;;;1.48;;
34541;SDS011;20784;51.332;12.410;2023-02-17T16:33:46;1.52;;;1.10;;
34541;SDS011;20784;51.332;12.410;2023-02-17T16:36:16;3.10;;;1.42;;
34541;SDS011;20784;51.332;12.410;2023-02-17T16:38:44;3.53;;;1.55;;
34541;SDS011;20784;51.332;12.410;2023-02-17T16:41:16;1.90;;;1.40;;
34541;SDS011;20784;51.332;12.410;2023-02-17T16:43:53;3.38;;;1.83;;
34541;SDS011;20784;51.332;12.410;2023-02-17T16:46:31;6.65;;;1.50;;
34541;SDS011;20784;51.332;12.410;2023-02-17T17:37:34;6.53;;;3.05;;
34541;SDS011;20784;51.332;12.410;2023-02-17T17:46:51;9.13;;;4.60;;
34541;SDS011;20784;51.332;12.410;2023-02-17T17:49:39;3.85;;;2.97;;
34541;SDS011;20784;51.332;12.410;2023-02-17T17:52:51;3.35;;;2.90;;
34541;SDS011;20784;51.332;12.410;2023-02-17T17:56:12;4.45;;;2.85;;
34541;SDS011;20784;51.332;12.410;2023-02-17T17:59:10;3.63;;;2.75;;
34541;SDS011;20784;51.332;12.410;2023-02-17T18:01:44;3.80;;;2.67;;
34541;SDS011;20784;51.332;12.410;2023-02-17T18:14:24;3.50;;;2.90;;
34541;SDS011;20784;51.332;12.410;2023-02-17T18:24:19;4.10;;;3.22;;
34541;SDS011;20784;51.332;12.410;2023-02-17T18:27:14;3.53;;;2.85;;
34541;SDS011;20784;51.332;12.410;2023-02-17T18:29:49;4.03;;;3.15;;
34541;SDS011;20784;51.332;12.410;2023-02-17T18:32:24;3.72;;;2.78;;
34541;SDS011;20784;51.332;12.410;2023-02-17T18:49:28;3.03;;;2.22;;
34541;SDS011;20784;51.332;12.410;2023-02-17T18:56:26;4.72;;;2.88;;
34541;SDS011;20784;51.332;12.410;2023-02-17T18:59:33;3.78;;;2.60;;
34541;SDS011;20784;51.332;12.410;2023-02-17T19:02:02;3.75;;;2.95;;
34541;SDS011;20784;51.332;12.410;2023-02-17T19:04:59;6.25;;;3.50;;
34541;SDS011;20784;51.332;12.410;2023-02-17T19:11:39;4.50;;;4.03;;
34541;SDS011;20784;51.332;12.410;2023-02-17T19:14:43;7.22;;;4.20;;
34541;SDS011;20784;51.332;12.410;2023-02-17T19:17:19;6.07;;;3.70;;
34541;SDS011;20784;51.332;12.410;2023-02-17T19:30:26;3.85;;;3.45;;
34541;SDS011;20784;51.332;12.410;2023-02-17T19:33:03;5.15;;;3.53;;
34541;SDS011;20784;51.332;12.410;2023-02-17T19:36:02;3.97;;;3.40;;
34541;SDS011;20784;51.332;12.410;2023-02-17T19:39:01;4.60;;;3.72;;
34541;SDS011;20784;51.332;12.410;2023-02-17T19:42:10;4.25;;;3.33;;
34541;SDS011;20784;51.332;12.410;2023-02-17T19:45:02;6.18;;;3.65;;
34541;SDS011;20784;51.332;12.410;2023-02-17T20:33:33;5.72;;;3.80;;
34541;SDS011;20784;51.332;12.410;2023-02-17T20:36:10;7.07;;;4.28;;
34541;SDS011;20784;51.332;12.410;2023-02-17T20:38:37;5.47;;;3.92;;
34541;SDS011;20784;51.332;12.410;2023-02-17T20:41:04;5.80;;;3.88;;
34541;SDS011;20784;51.332;12.410;2023-02-17T20:43:39;7.15;;;4.60;;
34541;SDS011;20784;51.332;12.410;2023-02-17T20:46:05;6.63;;;4.38;;
34541;SDS011;20784;51.332;12.410;2023-02-17T20:48:31;6.55;;;4.40;;
34541;SDS011;20784;51.332;12.410;2023-02-17T20:50:57;8.32;;;4.32;;
34541;SDS011;20784;51.332;12.410;2023-02-17T20:53:32;7.22;;;4.50;;
34541;SDS011;20784;51.332;12.410;2023-02-17T20:59:38;6.10;;;4.93;;
34541;SDS011;20784;51.332;12.410;2023-02-17T21:02:32;7.85;;;4.90;;
34541;SDS011;20784;51.332;12.410;2023-02-17T21:09:38;7.70;;;5.55;;
34541;SDS011;20784;51.332;12.410;2023-02-17T21:12:12;7.03;;;5.43;;
34541;SDS011;20784;51.332;12.410;2023-02-17T21:17:11;8.98;;;6.45;;
34541;SDS011;20784;51.332;12.410;2023-02-17T21:20:06;8.55;;;5.50;;
34541;SDS011;20784;51.332;12.410;2023-02-17T21:22:35;9.65;;;5.43;;
34541;SDS011;20784;51.332;12.410;2023-02-17T21:25:19;7.75;;;4.95;;
34541;SDS011;20784;51.332;12.410;2023-02-17T21:27:46;9.27;;;5.10;;
34541;SDS011;20784;51.332;12.410;2023-02-17T21:30:12;10.00;;;4.47;;
34541;SDS011;20784;51.332;12.410;2023-02-17T21:32:44;9.38;;;4.78;;
34541;SDS011;20784;51.332;12.410;2023-02-17T21:35:18;8.90;;;4.45;;
34541;SDS011;20784;51.332;12.410;2023-02-17T21:37:49;5.65;;;3.60;;
34541;SDS011;20784;51.332;12.410;2023-02-17T21:50:02;9.52;;;2.88;;
34541;SDS011;20784;51.332;12.410;2023-02-17T21:52:35;5.10;;;2.58;;
34541;SDS011;20784;51.332;12.410;2023-02-17T21:55:28;6.57;;;1.92;;
34541;SDS011;20784;51.332;12.410;2023-02-17T21:57:58;6.90;;;2.10;;
34541;SDS011;20784;51.332;12.410;2023-02-17T22:00:47;8.60;;;2.80;;
34541;SDS011;20784;51.332;12.410;2023-02-17T22:03:56;4.07;;;2.00;;
34541;SDS011;20784;51.332;12.410;2023-02-17T22:06:34;3.42;;;1.90;;
34541;SDS011;20784;51.332;12.410;2023-02-17T22:10:02;9.25;;;1.85;;
34541;SDS011;20784;51.332;12.410;2023-02-17T22:13:11;4.55;;;1.75;;
34541;SDS011;20784;51.332;12.410;2023-02-17T22:18:49;7.95;;;1.92;;
34541;SDS011;20784;51.332;12.410;2023-02-17T22:21:15;8.57;;;2.22;;
34541;SDS011;20784;51.332;12.410;2023-02-17T22:23:50;5.38;;;1.30;;
34541;SDS011;20784;51.332;12.410;2023-02-17T22:26:22;4.55;;;1.92;;
34541;SDS011;20784;51.332;12.410;2023-02-17T22:28:54;7.97;;;1.80;;
34541;SDS011;20784;51.332;12.410;2023-02-17T22:31:30;8.65;;;2.47;;
34541;SDS011;20784;51.332;12.410;2023-02-17T22:34:06;4.70;;;2.00;;
34541;SDS011;20784;51.332;12.410;2023-02-17T22:36:40;7.72;;;2.17;;
34541;SDS011;20784;51.332;12.410;2023-02-17T22:39:15;6.03;;;2.90;;
34541;SDS011;20784;51.332;12.410;2023-02-17T22:45:11;12.93;;;4.13;;
34541;SDS011;20784;51.332;12.410;2023-02-17T22:47:58;9.40;;;4.68;;
34541;SDS011;20784;51.332;12.410;2023-02-17T22:53:47;7.68;;;5.95;;
34541;SDS011;20784;51.332;12.410;2023-02-17T22:56:16;11.02;;;6.35;;
34541;SDS011;20784;51.332;12.410;2023-02-17T22:58:45;11.88;;;7.78;;
34541;SDS011;20784;51.332;12.410;2023-02-17T23:01:27;9.32;;;6.75;;
34541;SDS011;20784;51.332;12.410;2023-02-17T23:07:08;10.40;;;7.03;;
34541;SDS011;20784;51.332;12.410;2023-02-17T23:10:19;11.98;;;7.82;;
34541;SDS011;20784;51.332;12.410;2023-02-17T23:13:29;11.65;;;7.63;;
34541;SDS011;20784;51.332;12.410;2023-02-17T23:15:59;10.45;;;7.28;;
34541;SDS011;20784;51.332;12.410;2023-02-17T23:19:23;8.57;;;6.95;;
34541;SDS011;20784;51.332;12.410;2023-02-17T23:28:59;8.30;;;6.78;;
34541;SDS011;20784;51.332;12.410;2023-02-17T23:32:02;12.45;;;7.72;;
34541;SDS011;20784;51.332;12.410;2023-02-17T23:35:01;11.25;;;7.32;;
34541;SDS011;20784;51.332;12.410;2023-02-17T23:37:33;11.32;;;7.50;;
34541;SDS011;20784;51.332;12.410;2023-02-17T23:42:54;10.07;;;6.85;;
34541;SDS011;20784;51.332;12.410;2023-02-17T23:45:45;14.50;;;8.25;;
34541;SDS011;20784;51.332;12.410;2023-02-17T23:49:00;9.25;;;7.38;;
34541;SDS011;20784;51.332;12.410;2023-02-17T23:51:44;13.82;;;7.97;;
34541;SDS011;20784;51.332;12.410;2023-02-17T23:54:35;10.00;;;7.55;;
34541;SDS011;20784;51.332;12.410;2023-02-17T23:57:47;10.82;;;7.45;;
